sensor_id;sensor_type;location;lat;lon;timestamp;P1;durP1;ratioP1;P2;durP2;ratioP2
78622;SDS011;67943;54.412;9.502;2023-07-13T00:03:51;12.90;;;4.63;;
78622;SDS011;67943;54.412;9.502;2023-07-13T00:08:54;12.75;;;5.22;;
78622;SDS011;67943;54.412;9.502;2023-07-13T00:13:56;8.70;;;5.10;;
78622;SDS011;67943;54.412;9.502;2023-07-13T00:18:57;11.02;;;5.60;;
78622;SDS011;67943;54.412;9.502;2023-07-13T00:24:01;11.60;;;5.55;;
78622;SDS011;67943;54.412;9.502;2023-07-13T00:29:03;8.80;;;5.25;;
78622;SDS011;67943;54.412;9.502;2023-07-13T00:34:06;10.85;;;5.65;;
78622;SDS011;67943;54.412;9.502;2023-07-13T00:39:09;8.93;;;5.32;;
78622;SDS011;67943;54.412;9.502;2023-07-13T00:44:11;8.55;;;4.75;;
78622;SDS011;67943;54.412;9.502;2023-07-13T00:49:15;8.50;;;4.60;;
78622;SDS011;67943;54.412;9.502;2023-07-13T00:54:21;10.02;;;4.80;;
78622;SDS011;67943;54.412;9.502;2023-07-13T00:59:25;11.93;;;4.90;;
78622;SDS011;67943;54.412;9.502;2023-07-13T01:04:27;10.05;;;5.43;;
78622;SDS011;67943;54.412;9.502;2023-07-13T01:09:30;11.45;;;4.80;;
78622;SDS011;67943;54.412;9.502;2023-07-13T01:14:32;10.52;;;5.63;;
78622;SDS011;67943;54.412;9.502;2023-07-13T01:19:35;11.98;;;5.75;;
78622;SDS011;67943;54.412;9.502;2023-07-13T01:24:41;10.93;;;6.05;;
78622;SDS011;67943;54.412;9.502;2023-07-13T01:29:44;15.60;;;7.13;;
78622;SDS011;67943;54.412;9.502;2023-07-13T01:34:47;12.50;;;6.55;;
78622;SDS011;67943;54.412;9.502;2023-07-13T01:39:51;12.63;;;6.47;;
78622;SDS011;67943;54.412;9.502;2023-07-13T01:44:52;9.65;;;5.43;;
78622;SDS011;67943;54.412;9.502;2023-07-13T01:49:54;12.35;;;6.15;;
78622;SDS011;67943;54.412;9.502;2023-07-13T01:54:57;10.68;;;5.75;;
78622;SDS011;67943;54.412;9.502;2023-07-13T01:59:58;9.25;;;5.78;;
78622;SDS011;67943;54.412;9.502;2023-07-13T02:05:00;11.63;;;5.85;;
78622;SDS011;67943;54.412;9.502;2023-07-13T02:10:03;5.70;;;4.50;;
78622;SDS011;67943;54.412;9.502;2023-07-13T02:15:06;10.75;;;5.40;;
78622;SDS011;67943;54.412;9.502;2023-07-13T02:20:08;12.35;;;4.97;;
78622;SDS011;67943;54.412;9.502;2023-07-13T02:25:11;9.80;;;5.20;;
78622;SDS011;67943;54.412;9.502;2023-07-13T02:30:13;8.73;;;5.00;;
78622;SDS011;67943;54.412;9.502;2023-07-13T02:35:15;7.35;;;5.00;;
78622;SDS011;67943;54.412;9.502;2023-07-13T02:40:18;11.48;;;5.47;;
78622;SDS011;67943;54.412;9.502;2023-07-13T02:45:19;8.38;;;4.60;;
78622;SDS011;67943;54.412;9.502;2023-07-13T02:50:21;8.18;;;4.57;;
78622;SDS011;67943;54.412;9.502;2023-07-13T02:55:23;8.30;;;4.50;;
78622;SDS011;67943;54.412;9.502;2023-07-13T03:00:25;10.40;;;5.45;;
78622;SDS011;67943;54.412;9.502;2023-07-13T03:05:26;7.82;;;5.40;;
78622;SDS011;67943;54.412;9.502;2023-07-13T03:10:29;9.98;;;5.63;;
78622;SDS011;67943;54.412;9.502;2023-07-13T03:15:31;8.93;;;5.78;;
78622;SDS011;67943;54.412;9.502;2023-07-13T03:20:33;13.02;;;6.70;;
78622;SDS011;67943;54.412;9.502;2023-07-13T03:25:36;10.40;;;6.82;;
78622;SDS011;67943;54.412;9.502;2023-07-13T03:30:37;9.38;;;6.32;;
78622;SDS011;67943;54.412;9.502;2023-07-13T03:35:40;10.18;;;6.75;;
78622;SDS011;67943;54.412;9.502;2023-07-13T03:40:43;12.23;;;6.90;;
78622;SDS011;67943;54.412;9.502;2023-07-13T03:45:44;10.85;;;6.90;;
78622;SDS011;67943;54.412;9.502;2023-07-13T03:50:46;15.05;;;7.40;;
78622;SDS011;67943;54.412;9.502;2023-07-13T03:55:50;12.25;;;7.40;;
78622;SDS011;67943;54.412;9.502;2023-07-13T04:00:52;11.07;;;7.18;;
78622;SDS011;67943;54.412;9.502;2023-07-13T04:05:54;11.52;;;6.78;;
78622;SDS011;67943;54.412;9.502;2023-07-13T04:11:03;13.98;;;7.28;;
78622;SDS011;67943;54.412;9.502;2023-07-13T04:16:05;13.18;;;6.53;;
78622;SDS011;67943;54.412;9.502;2023-07-13T04:21:07;12.85;;;6.63;;
78622;SDS011;67943;54.412;9.502;2023-07-13T04:26:11;12.13;;;7.00;;
78622;SDS011;67943;54.412;9.502;2023-07-13T04:31:12;10.32;;;6.20;;
78622;SDS011;67943;54.412;9.502;2023-07-13T04:36:14;12.95;;;7.20;;
78622;SDS011;67943;54.412;9.502;2023-07-13T04:41:17;11.18;;;5.82;;
78622;SDS011;67943;54.412;9.502;2023-07-13T04:46:19;16.38;;;5.25;;
78622;SDS011;67943;54.412;9.502;2023-07-13T04:51:20;8.63;;;3.47;;
78622;SDS011;67943;54.412;9.502;2023-07-13T04:56:23;8.35;;;2.17;;
78622;SDS011;67943;54.412;9.502;2023-07-13T05:01:25;4.63;;;1.27;;
78622;SDS011;67943;54.412;9.502;2023-07-13T05:06:27;4.10;;;1.10;;
78622;SDS011;67943;54.412;9.502;2023-07-13T05:11:32;2.03;;;0.63;;
78622;SDS011;67943;54.412;9.502;2023-07-13T05:16:33;2.85;;;0.63;;
78622;SDS011;67943;54.412;9.502;2023-07-13T05:21:35;2.38;;;0.68;;
78622;SDS011;67943;54.412;9.502;2023-07-13T05:26:38;3.20;;;1.08;;
78622;SDS011;67943;54.412;9.502;2023-07-13T05:31:39;2.45;;;0.80;;
78622;SDS011;67943;54.412;9.502;2023-07-13T05:36:41;1.83;;;0.80;;
78622;SDS011;67943;54.412;9.502;2023-07-13T05:41:44;3.90;;;0.77;;
78622;SDS011;67943;54.412;9.502;2023-07-13T05:46:45;5.22;;;1.10;;
78622;SDS011;67943;54.412;9.502;2023-07-13T05:51:47;1.20;;;0.70;;
78622;SDS011;67943;54.412;9.502;2023-07-13T05:56:50;2.92;;;0.90;;
78622;SDS011;67943;54.412;9.502;2023-07-13T06:01:51;2.80;;;0.98;;
78622;SDS011;67943;54.412;9.502;2023-07-13T06:06:53;5.60;;;1.23;;
78622;SDS011;67943;54.412;9.502;2023-07-13T06:11:56;5.70;;;1.90;;
78622;SDS011;67943;54.412;9.502;2023-07-13T06:16:58;7.43;;;3.00;;
78622;SDS011;67943;54.412;9.502;2023-07-13T06:21:59;9.73;;;2.60;;
78622;SDS011;67943;54.412;9.502;2023-07-13T06:27:02;13.02;;;3.63;;
78622;SDS011;67943;54.412;9.502;2023-07-13T06:32:05;6.45;;;3.53;;
78622;SDS011;67943;54.412;9.502;2023-07-13T06:37:07;8.75;;;4.13;;
78622;SDS011;67943;54.412;9.502;2023-07-13T06:42:10;12.73;;;4.40;;
78622;SDS011;67943;54.412;9.502;2023-07-13T06:47:12;15.18;;;4.60;;
78622;SDS011;67943;54.412;9.502;2023-07-13T06:52:13;10.05;;;3.70;;
78622;SDS011;67943;54.412;9.502;2023-07-13T06:57:16;14.82;;;4.25;;
78622;SDS011;67943;54.412;9.502;2023-07-13T07:02:18;8.70;;;3.47;;
78622;SDS011;67943;54.412;9.502;2023-07-13T07:07:19;11.13;;;4.03;;
78622;SDS011;67943;54.412;9.502;2023-07-13T07:12:22;11.65;;;3.00;;
78622;SDS011;67943;54.412;9.502;2023-07-13T07:17:23;11.68;;;2.80;;
78622;SDS011;67943;54.412;9.502;2023-07-13T07:22:26;8.35;;;3.00;;
78622;SDS011;67943;54.412;9.502;2023-07-13T07:27:29;11.38;;;3.05;;
78622;SDS011;67943;54.412;9.502;2023-07-13T07:32:31;6.72;;;3.00;;
78622;SDS011;67943;54.412;9.502;2023-07-13T07:37:33;7.50;;;2.45;;
78622;SDS011;67943;54.412;9.502;2023-07-13T07:42:36;8.27;;;2.40;;
78622;SDS011;67943;54.412;9.502;2023-07-13T07:47:38;11.60;;;1.90;;
78622;SDS011;67943;54.412;9.502;2023-07-13T07:52:39;9.07;;;2.00;;
78622;SDS011;67943;54.412;9.502;2023-07-13T07:57:42;4.13;;;1.27;;
78622;SDS011;67943;54.412;9.502;2023-07-13T08:02:44;8.27;;;1.65;;
78622;SDS011;67943;54.412;9.502;2023-07-13T08:07:46;6.10;;;1.30;;
78622;SDS011;67943;54.412;9.502;2023-07-13T08:12:49;5.35;;;1.55;;
78622;SDS011;67943;54.412;9.502;2023-07-13T08:17:50;4.70;;;1.45;;
78622;SDS011;67943;54.412;9.502;2023-07-13T08:22:52;7.70;;;1.98;;
78622;SDS011;67943;54.412;9.502;2023-07-13T08:27:54;7.60;;;1.77;;
78622;SDS011;67943;54.412;9.502;2023-07-13T08:32:56;6.07;;;1.85;;
78622;SDS011;67943;54.412;9.502;2023-07-13T08:37:57;8.27;;;2.05;;
78622;SDS011;67943;54.412;9.502;2023-07-13T08:43:01;8.05;;;2.13;;
78622;SDS011;67943;54.412;9.502;2023-07-13T08:48:03;8.65;;;2.10;;
78622;SDS011;67943;54.412;9.502;2023-07-13T08:53:09;7.97;;;1.83;;
78622;SDS011;67943;54.412;9.502;2023-07-13T08:58:15;7.07;;;1.52;;
78622;SDS011;67943;54.412;9.502;2023-07-13T09:03:20;10.40;;;2.00;;
78622;SDS011;67943;54.412;9.502;2023-07-13T09:08:29;6.90;;;1.60;;
78622;SDS011;67943;54.412;9.502;2023-07-13T09:13:48;4.55;;;1.60;;
78622;SDS011;67943;54.412;9.502;2023-07-13T09:18:59;7.18;;;1.63;;
78622;SDS011;67943;54.412;9.502;2023-07-13T09:24:17;5.22;;;1.17;;
78622;SDS011;67943;54.412;9.502;2023-07-13T09:29:32;5.43;;;1.20;;
78622;SDS011;67943;54.412;9.502;2023-07-13T09:34:35;1.77;;;1.17;;
78622;SDS011;67943;54.412;9.502;2023-07-13T09:39:38;6.78;;;1.63;;
78622;SDS011;67943;54.412;9.502;2023-07-13T09:44:49;4.85;;;1.38;;
78622;SDS011;67943;54.412;9.502;2023-07-13T09:49:54;3.95;;;1.13;;
78622;SDS011;67943;54.412;9.502;2023-07-13T09:54:59;5.05;;;1.23;;
78622;SDS011;67943;54.412;9.502;2023-07-13T10:00:02;4.32;;;1.30;;
78622;SDS011;67943;54.412;9.502;2023-07-13T10:05:06;6.28;;;1.45;;
78622;SDS011;67943;54.412;9.502;2023-07-13T10:10:13;4.68;;;1.40;;
78622;SDS011;67943;54.412;9.502;2023-07-13T10:15:18;5.68;;;1.40;;
78622;SDS011;67943;54.412;9.502;2023-07-13T10:20:21;5.97;;;0.95;;
78622;SDS011;67943;54.412;9.502;2023-07-13T10:25:24;5.57;;;1.40;;
78622;SDS011;67943;54.412;9.502;2023-07-13T10:30:29;4.97;;;1.55;;
78622;SDS011;67943;54.412;9.502;2023-07-13T10:35:35;6.32;;;1.10;;
78622;SDS011;67943;54.412;9.502;2023-07-13T10:40:41;6.40;;;1.58;;
78622;SDS011;67943;54.412;9.502;2023-07-13T10:45:47;6.15;;;1.00;;
78622;SDS011;67943;54.412;9.502;2023-07-13T10:50:50;3.90;;;0.98;;
78622;SDS011;67943;54.412;9.502;2023-07-13T10:55:55;4.90;;;1.10;;
78622;SDS011;67943;54.412;9.502;2023-07-13T11:01:04;3.53;;;1.20;;
78622;SDS011;67943;54.412;9.502;2023-07-13T11:06:11;5.82;;;1.10;;
78622;SDS011;67943;54.412;9.502;2023-07-13T11:11:33;3.08;;;0.95;;
78622;SDS011;67943;54.412;9.502;2023-07-13T11:16:42;5.72;;;1.08;;
78622;SDS011;67943;54.412;9.502;2023-07-13T11:27:10;3.47;;;1.17;;
78622;SDS011;67943;54.412;9.502;2023-07-13T11:32:25;3.28;;;1.00;;
78622;SDS011;67943;54.412;9.502;2023-07-13T11:37:31;4.90;;;1.10;;
78622;SDS011;67943;54.412;9.502;2023-07-13T11:42:33;4.45;;;0.68;;
78622;SDS011;67943;54.412;9.502;2023-07-13T11:47:39;3.78;;;0.88;;
78622;SDS011;67943;54.412;9.502;2023-07-13T11:52:41;4.20;;;1.00;;
78622;SDS011;67943;54.412;9.502;2023-07-13T11:57:45;3.80;;;1.00;;
78622;SDS011;67943;54.412;9.502;2023-07-13T12:02:52;4.20;;;1.00;;
78622;SDS011;67943;54.412;9.502;2023-07-13T12:07:56;5.97;;;1.40;;
78622;SDS011;67943;54.412;9.502;2023-07-13T12:12:58;9.20;;;1.20;;
78622;SDS011;67943;54.412;9.502;2023-07-13T12:18:03;5.75;;;0.77;;
78622;SDS011;67943;54.412;9.502;2023-07-13T12:23:14;4.03;;;1.10;;
78622;SDS011;67943;54.412;9.502;2023-07-13T12:28:30;6.10;;;1.37;;
78622;SDS011;67943;54.412;9.502;2023-07-13T12:33:34;6.28;;;1.08;;
78622;SDS011;67943;54.412;9.502;2023-07-13T12:38:37;2.30;;;1.00;;
78622;SDS011;67943;54.412;9.502;2023-07-13T12:43:40;6.85;;;1.27;;
78622;SDS011;67943;54.412;9.502;2023-07-13T12:48:43;4.95;;;1.05;;
78622;SDS011;67943;54.412;9.502;2023-07-13T12:53:47;3.47;;;1.00;;
78622;SDS011;67943;54.412;9.502;2023-07-13T12:58:54;5.13;;;1.15;;
78622;SDS011;67943;54.412;9.502;2023-07-13T13:04:00;5.13;;;1.17;;
78622;SDS011;67943;54.412;9.502;2023-07-13T13:09:09;8.10;;;1.52;;
78622;SDS011;67943;54.412;9.502;2023-07-13T13:14:13;4.32;;;1.10;;
78622;SDS011;67943;54.412;9.502;2023-07-13T13:19:17;5.93;;;1.63;;
78622;SDS011;67943;54.412;9.502;2023-07-13T13:24:22;4.90;;;1.05;;
78622;SDS011;67943;54.412;9.502;2023-07-13T13:29:24;5.82;;;1.30;;
78622;SDS011;67943;54.412;9.502;2023-07-13T13:34:27;9.68;;;1.40;;
78622;SDS011;67943;54.412;9.502;2023-07-13T13:39:31;6.15;;;1.30;;
78622;SDS011;67943;54.412;9.502;2023-07-13T13:44:35;6.90;;;1.15;;
78622;SDS011;67943;54.412;9.502;2023-07-13T13:49:38;5.68;;;1.30;;
78622;SDS011;67943;54.412;9.502;2023-07-13T13:54:39;3.83;;;1.02;;
78622;SDS011;67943;54.412;9.502;2023-07-13T13:59:41;9.50;;;1.67;;
78622;SDS011;67943;54.412;9.502;2023-07-13T14:04:44;5.22;;;1.30;;
78622;SDS011;67943;54.412;9.502;2023-07-13T14:09:47;5.97;;;1.40;;
78622;SDS011;67943;54.412;9.502;2023-07-13T14:14:48;7.38;;;1.30;;
78622;SDS011;67943;54.412;9.502;2023-07-13T14:19:51;7.10;;;1.38;;
78622;SDS011;67943;54.412;9.502;2023-07-13T14:24:57;5.40;;;1.25;;
78622;SDS011;67943;54.412;9.502;2023-07-13T14:29:59;6.40;;;1.73;;
78622;SDS011;67943;54.412;9.502;2023-07-13T14:35:02;7.50;;;1.60;;
78622;SDS011;67943;54.412;9.502;2023-07-13T14:40:08;5.80;;;1.38;;
78622;SDS011;67943;54.412;9.502;2023-07-13T14:45:14;5.18;;;1.30;;
78622;SDS011;67943;54.412;9.502;2023-07-13T14:50:18;7.15;;;1.45;;
78622;SDS011;67943;54.412;9.502;2023-07-13T14:55:21;14.98;;;7.63;;
78622;SDS011;67943;54.412;9.502;2023-07-13T15:00:26;5.85;;;1.42;;
78622;SDS011;67943;54.412;9.502;2023-07-13T15:05:30;5.68;;;1.55;;
78622;SDS011;67943;54.412;9.502;2023-07-13T15:10:33;4.68;;;1.10;;
78622;SDS011;67943;54.412;9.502;2023-07-13T15:15:36;4.18;;;1.00;;
78622;SDS011;67943;54.412;9.502;2023-07-13T15:20:39;7.47;;;1.30;;
78622;SDS011;67943;54.412;9.502;2023-07-13T15:25:41;5.68;;;1.45;;
78622;SDS011;67943;54.412;9.502;2023-07-13T15:30:45;5.53;;;1.33;;
78622;SDS011;67943;54.412;9.502;2023-07-13T15:35:49;7.20;;;1.63;;
78622;SDS011;67943;54.412;9.502;2023-07-13T15:40:51;6.13;;;1.77;;
78622;SDS011;67943;54.412;9.502;2023-07-13T15:45:54;4.75;;;1.80;;
78622;SDS011;67943;54.412;9.502;2023-07-13T15:51:01;6.65;;;1.25;;
78622;SDS011;67943;54.412;9.502;2023-07-13T15:56:06;3.70;;;1.45;;
78622;SDS011;67943;54.412;9.502;2023-07-13T16:01:18;4.80;;;1.30;;
78622;SDS011;67943;54.412;9.502;2023-07-13T16:06:22;5.75;;;1.35;;
78622;SDS011;67943;54.412;9.502;2023-07-13T16:11:27;4.38;;;1.20;;
78622;SDS011;67943;54.412;9.502;2023-07-13T16:16:35;9.00;;;1.67;;
78622;SDS011;67943;54.412;9.502;2023-07-13T16:21:39;7.10;;;1.50;;
78622;SDS011;67943;54.412;9.502;2023-07-13T16:26:43;4.82;;;1.20;;
78622;SDS011;67943;54.412;9.502;2023-07-13T16:31:54;3.42;;;1.25;;
78622;SDS011;67943;54.412;9.502;2023-07-13T16:36:58;5.00;;;1.27;;
78622;SDS011;67943;54.412;9.502;2023-07-13T16:42:01;3.97;;;1.85;;
78622;SDS011;67943;54.412;9.502;2023-07-13T16:47:05;7.18;;;1.48;;
78622;SDS011;67943;54.412;9.502;2023-07-13T16:52:16;9.43;;;2.00;;
78622;SDS011;67943;54.412;9.502;2023-07-13T16:57:21;7.82;;;1.58;;
78622;SDS011;67943;54.412;9.502;2023-07-13T17:02:29;7.93;;;1.58;;
78622;SDS011;67943;54.412;9.502;2023-07-13T17:07:36;5.93;;;1.50;;
78622;SDS011;67943;54.412;9.502;2023-07-13T17:12:37;10.02;;;2.13;;
78622;SDS011;67943;54.412;9.502;2023-07-13T17:17:39;7.90;;;1.67;;
78622;SDS011;67943;54.412;9.502;2023-07-13T17:22:44;11.27;;;2.17;;
78622;SDS011;67943;54.412;9.502;2023-07-13T17:27:47;6.43;;;1.75;;
78622;SDS011;67943;54.412;9.502;2023-07-13T17:32:49;6.97;;;1.67;;
78622;SDS011;67943;54.412;9.502;2023-07-13T17:37:54;3.17;;;1.02;;
78622;SDS011;67943;54.412;9.502;2023-07-13T17:42:57;3.75;;;1.30;;
78622;SDS011;67943;54.412;9.502;2023-07-13T17:47:58;5.10;;;1.65;;
78622;SDS011;67943;54.412;9.502;2023-07-13T17:53:10;6.90;;;2.42;;
78622;SDS011;67943;54.412;9.502;2023-07-13T17:58:14;9.07;;;1.92;;
78622;SDS011;67943;54.412;9.502;2023-07-13T18:03:18;7.72;;;2.10;;
78622;SDS011;67943;54.412;9.502;2023-07-13T18:08:25;7.90;;;1.95;;
78622;SDS011;67943;54.412;9.502;2023-07-13T18:13:29;8.50;;;1.95;;
78622;SDS011;67943;54.412;9.502;2023-07-13T18:18:34;7.65;;;2.10;;
78622;SDS011;67943;54.412;9.502;2023-07-13T18:23:37;8.70;;;2.40;;
78622;SDS011;67943;54.412;9.502;2023-07-13T18:28:39;9.82;;;2.45;;
78622;SDS011;67943;54.412;9.502;2023-07-13T18:33:40;6.22;;;1.80;;
78622;SDS011;67943;54.412;9.502;2023-07-13T18:38:47;9.00;;;2.30;;
78622;SDS011;67943;54.412;9.502;2023-07-13T18:43:48;5.63;;;2.20;;
78622;SDS011;67943;54.412;9.502;2023-07-13T18:48:52;6.20;;;2.88;;
78622;SDS011;67943;54.412;9.502;2023-07-13T18:53:55;5.80;;;2.10;;
78622;SDS011;67943;54.412;9.502;2023-07-13T18:58:56;10.73;;;2.33;;
78622;SDS011;67943;54.412;9.502;2023-07-13T19:03:58;9.02;;;2.20;;
78622;SDS011;67943;54.412;9.502;2023-07-13T19:09:04;4.55;;;2.10;;
78622;SDS011;67943;54.412;9.502;2023-07-13T19:14:08;8.13;;;2.40;;
78622;SDS011;67943;54.412;9.502;2023-07-13T19:19:11;8.35;;;2.60;;
78622;SDS011;67943;54.412;9.502;2023-07-13T19:24:17;5.80;;;2.40;;
78622;SDS011;67943;54.412;9.502;2023-07-13T19:29:22;10.77;;;2.95;;
78622;SDS011;67943;54.412;9.502;2023-07-13T19:34:26;9.13;;;3.00;;
78622;SDS011;67943;54.412;9.502;2023-07-13T19:39:31;8.95;;;3.13;;
78622;SDS011;67943;54.412;9.502;2023-07-13T19:44:38;9.60;;;2.93;;
78622;SDS011;67943;54.412;9.502;2023-07-13T19:49:41;7.32;;;2.33;;
78622;SDS011;67943;54.412;9.502;2023-07-13T19:54:45;9.52;;;2.40;;
78622;SDS011;67943;54.412;9.502;2023-07-13T19:59:51;9.48;;;3.22;;
78622;SDS011;67943;54.412;9.502;2023-07-13T20:04:54;9.60;;;2.78;;
78622;SDS011;67943;54.412;9.502;2023-07-13T20:09:57;8.57;;;3.03;;
78622;SDS011;67943;54.412;9.502;2023-07-13T20:14:58;6.28;;;3.10;;
78622;SDS011;67943;54.412;9.502;2023-07-13T20:20:00;8.38;;;3.15;;
78622;SDS011;67943;54.412;9.502;2023-07-13T20:25:09;7.63;;;3.00;;
78622;SDS011;67943;54.412;9.502;2023-07-13T20:30:16;9.13;;;3.30;;
78622;SDS011;67943;54.412;9.502;2023-07-13T20:35:23;9.77;;;3.30;;
78622;SDS011;67943;54.412;9.502;2023-07-13T20:40:30;12.65;;;3.58;;
78622;SDS011;67943;54.412;9.502;2023-07-13T20:45:34;11.55;;;3.90;;
78622;SDS011;67943;54.412;9.502;2023-07-13T20:50:36;6.95;;;3.13;;
78622;SDS011;67943;54.412;9.502;2023-07-13T20:55:39;14.63;;;3.95;;
78622;SDS011;67943;54.412;9.502;2023-07-13T21:00:41;7.18;;;3.30;;
78622;SDS011;67943;54.412;9.502;2023-07-13T21:05:43;9.27;;;3.60;;
78622;SDS011;67943;54.412;9.502;2023-07-13T21:10:46;11.68;;;3.80;;
78622;SDS011;67943;54.412;9.502;2023-07-13T21:15:48;12.75;;;3.92;;
78622;SDS011;67943;54.412;9.502;2023-07-13T21:20:50;8.38;;;3.28;;
78622;SDS011;67943;54.412;9.502;2023-07-13T21:25:54;8.05;;;3.35;;
78622;SDS011;67943;54.412;9.502;2023-07-13T21:30:58;11.20;;;3.50;;
78622;SDS011;67943;54.412;9.502;2023-07-13T21:36:03;8.02;;;3.10;;
78622;SDS011;67943;54.412;9.502;2023-07-13T21:41:12;11.52;;;3.70;;
78622;SDS011;67943;54.412;9.502;2023-07-13T21:46:20;12.77;;;3.50;;
78622;SDS011;67943;54.412;9.502;2023-07-13T21:51:23;14.75;;;3.08;;
78622;SDS011;67943;54.412;9.502;2023-07-13T21:56:28;9.02;;;3.47;;
78622;SDS011;67943;54.412;9.502;2023-07-13T22:01:30;10.20;;;3.63;;
78622;SDS011;67943;54.412;9.502;2023-07-13T22:06:33;10.05;;;4.22;;
78622;SDS011;67943;54.412;9.502;2023-07-13T22:11:38;11.40;;;3.72;;
78622;SDS011;67943;54.412;9.502;2023-07-13T22:16:39;10.98;;;3.58;;
78622;SDS011;67943;54.412;9.502;2023-07-13T22:21:41;14.50;;;3.70;;
78622;SDS011;67943;54.412;9.502;2023-07-13T22:26:44;13.85;;;3.85;;
78622;SDS011;67943;54.412;9.502;2023-07-13T22:31:46;8.70;;;4.03;;
78622;SDS011;67943;54.412;9.502;2023-07-13T22:36:47;11.45;;;3.80;;
78622;SDS011;67943;54.412;9.502;2023-07-13T22:41:51;7.82;;;3.00;;
78622;SDS011;67943;54.412;9.502;2023-07-13T22:46:53;9.45;;;3.50;;
78622;SDS011;67943;54.412;9.502;2023-07-13T22:51:56;6.55;;;3.33;;
78622;SDS011;67943;54.412;9.502;2023-07-13T22:57:00;9.10;;;3.95;;
78622;SDS011;67943;54.412;9.502;2023-07-13T23:02:01;6.78;;;3.20;;
78622;SDS011;67943;54.412;9.502;2023-07-13T23:07:04;7.10;;;3.00;;
78622;SDS011;67943;54.412;9.502;2023-07-13T23:12:08;7.32;;;3.03;;
78622;SDS011;67943;54.412;9.502;2023-07-13T23:17:11;5.88;;;2.83;;
78622;SDS011;67943;54.412;9.502;2023-07-13T23:22:16;10.50;;;3.53;;
78622;SDS011;67943;54.412;9.502;2023-07-13T23:27:25;6.07;;;2.92;;
78622;SDS011;67943;54.412;9.502;2023-07-13T23:32:26;7.55;;;2.97;;
78622;SDS011;67943;54.412;9.502;2023-07-13T23:37:28;6.30;;;3.40;;
78622;SDS011;67943;54.412;9.502;2023-07-13T23:42:31;9.82;;;4.05;;
78622;SDS011;67943;54.412;9.502;2023-07-13T23:47:32;8.73;;;3.90;;
78622;SDS011;67943;54.412;9.502;2023-07-13T23:52:34;9.57;;;3.63;;
78622;SDS011;67943;54.412;9.502;2023-07-13T23:57:37;8.48;;;4.00;;
